sensor_id;sensor_type;location;lat;lon;timestamp;pressure;altitude;pressure_sealevel;temperature;humidity
6134;BME280;3098;42.678;23.364;2022-09-12T00:01:08;94699.16;;;14.66;100.00
6134;BME280;3098;42.678;23.364;2022-09-12T00:03:37;94664.28;;;14.47;100.00
6134;BME280;3098;42.678;23.364;2022-09-12T00:06:10;94720.81;;;14.77;100.00
6134;BME280;3098;42.678;23.364;2022-09-12T00:08:38;94713.38;;;14.70;100.00
6134;BME280;3098;42.678;23.364;2022-09-12T00:11:11;94682.44;;;14.42;100.00
6134;BME280;3098;42.678;23.364;2022-09-12T00:13:39;94722.50;;;14.69;100.00
6134;BME280;3098;42.678;23.364;2022-09-12T00:16:11;94714.28;;;14.62;100.00
6134;BME280;3098;42.678;23.364;2022-09-12T00:18:39;94722.19;;;14.59;100.00
6134;BME280;3098;42.678;23.364;2022-09-12T00:21:10;94729.88;;;14.60;100.00
6134;BME280;3098;42.678;23.364;2022-09-12T00:23:39;94731.19;;;14.54;100.00
6134;BME280;3098;42.678;23.364;2022-09-12T00:26:07;94703.41;;;14.43;100.00
6134;BME280;3098;42.678;23.364;2022-09-12T00:28:37;94736.41;;;14.63;100.00
6134;BME280;3098;42.678;23.364;2022-09-12T00:31:07;94723.63;;;14.56;100.00
6134;BME280;3098;42.678;23.364;2022-09-12T00:33:35;94716.53;;;14.48;100.00
6134;BME280;3098;42.678;23.364;2022-09-12T00:36:06;94718.97;;;14.53;100.00
6134;BME280;3098;42.678;23.364;2022-09-12T00:38:40;94724.28;;;14.53;100.00
6134;BME280;3098;42.678;23.364;2022-09-12T00:41:12;94724.84;;;14.59;100.00
6134;BME280;3098;42.678;23.364;2022-09-12T00:43:44;94709.97;;;14.46;100.00
6134;BME280;3098;42.678;23.364;2022-09-12T00:46:18;94732.22;;;14.50;100.00
6134;BME280;3098;42.678;23.364;2022-09-12T00:48:53;94635.66;;;13.83;100.00
6134;BME280;3098;42.678;23.364;2022-09-12T00:51:22;94681.75;;;14.08;100.00
6134;BME280;3098;42.678;23.364;2022-09-12T00:53:55;94729.00;;;14.44;100.00
6134;BME280;3098;42.678;23.364;2022-09-12T00:56:25;94735.31;;;14.39;100.00
6134;BME280;3098;42.678;23.364;2022-09-12T00:58:57;94737.44;;;14.34;100.00
6134;BME280;3098;42.678;23.364;2022-09-12T01:01:26;94722.75;;;14.28;100.00
6134;BME280;3098;42.678;23.364;2022-09-12T01:03:54;94725.09;;;14.29;100.00
6134;BME280;3098;42.678;23.364;2022-09-12T01:06:31;94711.75;;;14.17;100.00
6134;BME280;3098;42.678;23.364;2022-09-12T01:09:03;94718.00;;;14.21;100.00
6134;BME280;3098;42.678;23.364;2022-09-12T01:11:31;94712.75;;;14.25;100.00
6134;BME280;3098;42.678;23.364;2022-09-12T01:14:01;94644.00;;;13.70;100.00
6134;BME280;3098;42.678;23.364;2022-09-12T01:16:28;94703.09;;;14.08;100.00
6134;BME280;3098;42.678;23.364;2022-09-12T01:19:04;94688.88;;;13.92;100.00
6134;BME280;3098;42.678;23.364;2022-09-12T01:21:40;94657.88;;;13.75;100.00
6134;BME280;3098;42.678;23.364;2022-09-12T01:24:28;94677.53;;;13.83;100.00
6134;BME280;3098;42.678;23.364;2022-09-12T01:27:17;94715.44;;;14.01;100.00
6134;BME280;3098;42.678;23.364;2022-09-12T01:32:52;94681.75;;;13.84;100.00
6134;BME280;3098;42.678;23.364;2022-09-12T01:35:25;94709.97;;;13.97;100.00
6134;BME280;3098;42.678;23.364;2022-09-12T01:38:08;94704.97;;;13.83;100.00
6134;BME280;3098;42.678;23.364;2022-09-12T01:40:41;94695.53;;;13.86;100.00
6134;BME280;3098;42.678;23.364;2022-09-12T01:43:16;94678.41;;;13.75;100.00
6134;BME280;3098;42.678;23.364;2022-09-12T01:45:52;94711.97;;;13.88;100.00
6134;BME280;3098;42.678;23.364;2022-09-12T01:48:26;94690.09;;;13.70;100.00
6134;BME280;3098;42.678;23.364;2022-09-12T01:50:58;94695.50;;;13.74;100.00
6134;BME280;3098;42.678;23.364;2022-09-12T01:53:34;94705.97;;;13.79;100.00
6134;BME280;3098;42.678;23.364;2022-09-12T01:56:08;94691.31;;;13.73;100.00
6134;BME280;3098;42.678;23.364;2022-09-12T01:58:41;94654.06;;;13.40;100.00
6134;BME280;3098;42.678;23.364;2022-09-12T02:01:13;94698.28;;;13.65;100.00
6134;BME280;3098;42.678;23.364;2022-09-12T02:03:45;94676.72;;;13.46;100.00
6134;BME280;3098;42.678;23.364;2022-09-12T02:06:17;94649.28;;;13.34;100.00
6134;BME280;3098;42.678;23.364;2022-09-12T02:08:48;94695.53;;;13.62;100.00
6134;BME280;3098;42.678;23.364;2022-09-12T02:11:18;94703.69;;;13.57;100.00
6134;BME280;3098;42.678;23.364;2022-09-12T02:13:49;94695.81;;;13.48;100.00
6134;BME280;3098;42.678;23.364;2022-09-12T02:16:23;94712.34;;;13.54;100.00
6134;BME280;3098;42.678;23.364;2022-09-12T02:18:54;94709.50;;;13.59;100.00
6134;BME280;3098;42.678;23.364;2022-09-12T02:21:25;94708.59;;;13.55;100.00
6134;BME280;3098;42.678;23.364;2022-09-12T02:24:00;94710.47;;;13.54;100.00
6134;BME280;3098;42.678;23.364;2022-09-12T02:26:32;94708.03;;;13.49;100.00
6134;BME280;3098;42.678;23.364;2022-09-12T02:29:01;94703.13;;;13.51;100.00
6134;BME280;3098;42.678;23.364;2022-09-12T02:31:33;94699.25;;;13.49;100.00
6134;BME280;3098;42.678;23.364;2022-09-12T02:34:09;94651.72;;;13.06;100.00
6134;BME280;3098;42.678;23.364;2022-09-12T02:36:47;94700.13;;;13.41;100.00
6134;BME280;3098;42.678;23.364;2022-09-12T02:39:15;94711.34;;;13.46;100.00
6134;BME280;3098;42.678;23.364;2022-09-12T02:41:44;94696.69;;;13.40;100.00
6134;BME280;3098;42.678;23.364;2022-09-12T02:44:12;94715.81;;;13.42;100.00
6134;BME280;3098;42.678;23.364;2022-09-12T02:46:42;94711.13;;;13.39;100.00
6134;BME280;3098;42.678;23.364;2022-09-12T02:49:11;94713.56;;;13.44;100.00
6134;BME280;3098;42.678;23.364;2022-09-12T02:51:39;94706.25;;;13.41;100.00
6134;BME280;3098;42.678;23.364;2022-09-12T02:54:07;94702.22;;;13.35;100.00
6134;BME280;3098;42.678;23.364;2022-09-12T02:56:40;94642.59;;;12.95;100.00
6134;BME280;3098;42.678;23.364;2022-09-12T02:59:10;94723.88;;;13.34;100.00
6134;BME280;3098;42.678;23.364;2022-09-12T03:02:00;94731.41;;;13.32;100.00
6134;BME280;3098;42.678;23.364;2022-09-12T03:07:52;94680.91;;;13.02;100.00
6134;BME280;3098;42.678;23.364;2022-09-12T03:10:26;94726.53;;;13.34;100.00
6134;BME280;3098;42.678;23.364;2022-09-12T03:13:08;94729.06;;;13.30;100.00
6134;BME280;3098;42.678;23.364;2022-09-12T03:15:51;94724.06;;;13.29;100.00
6134;BME280;3098;42.678;23.364;2022-09-12T03:18:31;94742.25;;;13.27;100.00
6134;BME280;3098;42.678;23.364;2022-09-12T03:21:10;94720.72;;;13.19;100.00
6134;BME280;3098;42.678;23.364;2022-09-12T03:23:43;94685.97;;;12.95;100.00
6134;BME280;3098;42.678;23.364;2022-09-12T03:26:15;94713.13;;;13.09;100.00
6134;BME280;3098;42.678;23.364;2022-09-12T03:28:44;94726.50;;;13.21;100.00
6134;BME280;3098;42.678;23.364;2022-09-12T03:31:15;94703.75;;;13.03;100.00
6134;BME280;3098;42.678;23.364;2022-09-12T03:33:43;94731.25;;;13.16;100.00
6134;BME280;3098;42.678;23.364;2022-09-12T03:36:15;94714.75;;;13.02;100.00
6134;BME280;3098;42.678;23.364;2022-09-12T03:38:45;94714.59;;;12.98;100.00
6134;BME280;3098;42.678;23.364;2022-09-12T03:41:12;94725.19;;;13.07;100.00
6134;BME280;3098;42.678;23.364;2022-09-12T03:43:39;94697.78;;;12.86;100.00
6134;BME280;3098;42.678;23.364;2022-09-12T03:46:06;94726.78;;;13.08;100.00
6134;BME280;3098;42.678;23.364;2022-09-12T03:48:34;94618.50;;;12.26;100.00
6134;BME280;3098;42.678;23.364;2022-09-12T03:51:04;94711.16;;;12.98;100.00
6134;BME280;3098;42.678;23.364;2022-09-12T03:53:32;94725.66;;;13.09;100.00
6134;BME280;3098;42.678;23.364;2022-09-12T03:56:05;94725.19;;;13.07;100.00
6134;BME280;3098;42.678;23.364;2022-09-12T03:58:32;94707.41;;;12.99;100.00
6134;BME280;3098;42.678;23.364;2022-09-12T04:01:05;94682.25;;;12.76;100.00
6134;BME280;3098;42.678;23.364;2022-09-12T04:03:36;94729.09;;;13.09;100.00
6134;BME280;3098;42.678;23.364;2022-09-12T04:06:03;94697.28;;;12.92;100.00
6134;BME280;3098;42.678;23.364;2022-09-12T04:08:31;94687.81;;;12.83;100.00
6134;BME280;3098;42.678;23.364;2022-09-12T04:11:03;94729.69;;;13.15;100.00
6134;BME280;3098;42.678;23.364;2022-09-12T04:13:30;94728.44;;;13.12;100.00
6134;BME280;3098;42.678;23.364;2022-09-12T04:15:58;94702.88;;;12.99;100.00
6134;BME280;3098;42.678;23.364;2022-09-12T04:18:26;94732.59;;;13.22;100.00
6134;BME280;3098;42.678;23.364;2022-09-12T04:20:53;94732.91;;;13.20;100.00
6134;BME280;3098;42.678;23.364;2022-09-12T04:23:20;94721.81;;;13.18;100.00
6134;BME280;3098;42.678;23.364;2022-09-12T04:25:54;94740.97;;;13.33;100.00
6134;BME280;3098;42.678;23.364;2022-09-12T04:28:23;94738.28;;;13.33;100.00
6134;BME280;3098;42.678;23.364;2022-09-12T04:30:50;94735.19;;;13.31;100.00
6134;BME280;3098;42.678;23.364;2022-09-12T04:33:17;94729.38;;;13.29;100.00
6134;BME280;3098;42.678;23.364;2022-09-12T04:35:45;94744.09;;;13.47;100.00
6134;BME280;3098;42.678;23.364;2022-09-12T04:38:12;94742.88;;;13.44;100.00
6134;BME280;3098;42.678;23.364;2022-09-12T04:40:39;94721.34;;;13.49;100.00
6134;BME280;3098;42.678;23.364;2022-09-12T04:43:06;94705.59;;;13.44;100.00
6134;BME280;3098;42.678;23.364;2022-09-12T04:45:35;94742.03;;;13.76;100.00
6134;BME280;3098;42.678;23.364;2022-09-12T04:48:03;94746.06;;;13.82;100.00
6134;BME280;3098;42.678;23.364;2022-09-12T04:50:29;94739.97;;;13.82;100.00
6134;BME280;3098;42.678;23.364;2022-09-12T04:52:57;94741.66;;;13.99;100.00
6134;BME280;3098;42.678;23.364;2022-09-12T04:55:24;94750.53;;;14.03;100.00
6134;BME280;3098;42.678;23.364;2022-09-12T04:57:51;94746.09;;;14.07;100.00
6134;BME280;3098;42.678;23.364;2022-09-12T05:00:18;94738.84;;;14.19;100.00
6134;BME280;3098;42.678;23.364;2022-09-12T05:02:47;94726.09;;;14.01;100.00
6134;BME280;3098;42.678;23.364;2022-09-12T05:05:14;94750.34;;;14.32;100.00
6134;BME280;3098;42.678;23.364;2022-09-12T05:07:41;94753.88;;;14.36;100.00
6134;BME280;3098;42.678;23.364;2022-09-12T05:10:09;94749.34;;;14.36;100.00
6134;BME280;3098;42.678;23.364;2022-09-12T05:12:37;94726.78;;;14.34;100.00
6134;BME280;3098;42.678;23.364;2022-09-12T05:15:05;94730.66;;;14.36;100.00
6134;BME280;3098;42.678;23.364;2022-09-12T05:17:32;94753.00;;;14.56;100.00
6134;BME280;3098;42.678;23.364;2022-09-12T05:20:01;94761.78;;;14.57;100.00
6134;BME280;3098;42.678;23.364;2022-09-12T05:22:28;94760.19;;;14.68;100.00
6134;BME280;3098;42.678;23.364;2022-09-12T05:24:56;94751.41;;;14.79;100.00
6134;BME280;3098;42.678;23.364;2022-09-12T05:27:23;94755.91;;;15.03;100.00
6134;BME280;3098;42.678;23.364;2022-09-12T05:29:50;94751.81;;;15.21;100.00
6134;BME280;3098;42.678;23.364;2022-09-12T05:32:17;94757.72;;;16.14;100.00
6134;BME280;3098;42.678;23.364;2022-09-12T05:34:45;94740.72;;;17.64;100.00
6134;BME280;3098;42.678;23.364;2022-09-12T05:37:14;94765.75;;;18.40;95.42
6134;BME280;3098;42.678;23.364;2022-09-12T05:39:41;94770.06;;;17.38;97.82
6134;BME280;3098;42.678;23.364;2022-09-12T05:42:08;94763.28;;;17.25;100.00
6134;BME280;3098;42.678;23.364;2022-09-12T05:44:36;94578.97;;;16.57;98.54
6134;BME280;3098;42.678;23.364;2022-09-12T05:47:04;94621.41;;;18.30;90.14
6134;BME280;3098;42.678;23.364;2022-09-12T05:49:31;94731.09;;;20.17;82.97
6134;BME280;3098;42.678;23.364;2022-09-12T05:51:58;94766.75;;;20.47;81.12
6134;BME280;3098;42.678;23.364;2022-09-12T05:54:27;94701.38;;;21.26;76.71
6134;BME280;3098;42.678;23.364;2022-09-12T05:56:54;94767.59;;;22.31;72.63
6134;BME280;3098;42.678;23.364;2022-09-12T05:59:21;94760.28;;;22.60;69.01
6134;BME280;3098;42.678;23.364;2022-09-12T06:01:48;94735.94;;;22.92;66.85
6134;BME280;3098;42.678;23.364;2022-09-12T06:04:16;94753.44;;;23.74;65.38
6134;BME280;3098;42.678;23.364;2022-09-12T06:06:44;94696.31;;;23.54;64.14
6134;BME280;3098;42.678;23.364;2022-09-12T06:09:12;94667.13;;;23.07;63.37
6134;BME280;3098;42.678;23.364;2022-09-12T06:11:41;94741.97;;;24.21;63.42
6134;BME280;3098;42.678;23.364;2022-09-12T06:14:09;94739.88;;;24.91;60.47
6134;BME280;3098;42.678;23.364;2022-09-12T06:16:37;94709.19;;;24.97;57.81
6134;BME280;3098;42.678;23.364;2022-09-12T06:19:06;94736.72;;;24.51;59.40
6134;BME280;3098;42.678;23.364;2022-09-12T06:21:34;94683.19;;;24.15;58.78
6134;BME280;3098;42.678;23.364;2022-09-12T06:24:02;94735.53;;;24.52;58.01
6134;BME280;3098;42.678;23.364;2022-09-12T06:26:30;94748.47;;;24.79;56.13
6134;BME280;3098;42.678;23.364;2022-09-12T06:28:59;94748.81;;;24.36;57.11
6134;BME280;3098;42.678;23.364;2022-09-12T06:31:28;94748.38;;;24.45;56.13
6134;BME280;3098;42.678;23.364;2022-09-12T06:33:58;94765.53;;;24.79;56.14
6134;BME280;3098;42.678;23.364;2022-09-12T06:36:29;94756.59;;;24.34;56.82
6134;BME280;3098;42.678;23.364;2022-09-12T06:38:59;94595.00;;;22.72;58.93
6134;BME280;3098;42.678;23.364;2022-09-12T06:41:27;94757.16;;;24.01;58.46
6134;BME280;3098;42.678;23.364;2022-09-12T06:43:55;94743.72;;;24.49;56.59
6134;BME280;3098;42.678;23.364;2022-09-12T06:46:25;94768.13;;;24.45;57.41
6134;BME280;3098;42.678;23.364;2022-09-12T06:48:52;94739.56;;;24.30;57.30
6134;BME280;3098;42.678;23.364;2022-09-12T06:51:21;94723.50;;;25.32;54.32
6134;BME280;3098;42.678;23.364;2022-09-12T06:53:49;94754.16;;;25.32;52.39
6134;BME280;3098;42.678;23.364;2022-09-12T06:56:18;94721.13;;;24.59;54.51
6134;BME280;3098;42.678;23.364;2022-09-12T06:58:52;94740.78;;;24.74;54.86
6134;BME280;3098;42.678;23.364;2022-09-12T07:01:21;94770.25;;;24.17;56.69
6134;BME280;3098;42.678;23.364;2022-09-12T07:03:51;94717.59;;;24.66;53.89
6134;BME280;3098;42.678;23.364;2022-09-12T07:06:20;94785.09;;;23.91;56.63
6134;BME280;3098;42.678;23.364;2022-09-12T07:08:49;94783.84;;;22.84;60.71
6134;BME280;3098;42.678;23.364;2022-09-12T07:11:18;94780.00;;;22.78;60.91
6134;BME280;3098;42.678;23.364;2022-09-12T07:13:48;94800.47;;;22.93;62.10
6134;BME280;3098;42.678;23.364;2022-09-12T07:16:16;94784.22;;;22.29;64.36
6134;BME280;3098;42.678;23.364;2022-09-12T07:18:50;94779.44;;;23.61;60.88
6134;BME280;3098;42.678;23.364;2022-09-12T07:21:18;94782.50;;;23.70;58.51
6134;BME280;3098;42.678;23.364;2022-09-12T07:23:45;94784.53;;;21.96;64.27
6134;BME280;3098;42.678;23.364;2022-09-12T07:26:14;94775.16;;;21.65;66.10
6134;BME280;3098;42.678;23.364;2022-09-12T07:28:42;94777.25;;;23.10;61.07
6134;BME280;3098;42.678;23.364;2022-09-12T07:31:12;94771.63;;;23.77;57.71
6134;BME280;3098;42.678;23.364;2022-09-12T07:33:40;94752.75;;;24.28;55.98
6134;BME280;3098;42.678;23.364;2022-09-12T07:36:11;94768.88;;;23.84;55.12
6134;BME280;3098;42.678;23.364;2022-09-12T07:38:41;94776.78;;;23.47;56.80
6134;BME280;3098;42.678;23.364;2022-09-12T07:41:11;94773.00;;;23.05;58.53
6134;BME280;3098;42.678;23.364;2022-09-12T07:43:39;94755.59;;;22.00;60.26
6134;BME280;3098;42.678;23.364;2022-09-12T07:46:06;94767.47;;;21.71;62.55
6134;BME280;3098;42.678;23.364;2022-09-12T07:48:33;94759.09;;;23.03;57.78
6134;BME280;3098;42.678;23.364;2022-09-12T07:51:02;94768.50;;;24.47;54.54
6134;BME280;3098;42.678;23.364;2022-09-12T07:53:32;94778.44;;;25.80;50.08
6134;BME280;3098;42.678;23.364;2022-09-12T07:55:59;94786.00;;;24.91;50.23
6134;BME280;3098;42.678;23.364;2022-09-12T07:58:27;94751.97;;;25.20;49.97
6134;BME280;3098;42.678;23.364;2022-09-12T08:01:02;94685.53;;;24.57;48.89
6134;BME280;3098;42.678;23.364;2022-09-12T08:03:29;94747.88;;;25.39;48.08
6134;BME280;3098;42.678;23.364;2022-09-12T08:06:02;94767.44;;;25.91;46.44
6134;BME280;3098;42.678;23.364;2022-09-12T08:08:31;94785.47;;;24.55;49.67
6134;BME280;3098;42.678;23.364;2022-09-12T08:10:59;94590.03;;;23.43;49.78
6134;BME280;3098;42.678;23.364;2022-09-12T08:13:27;94784.38;;;24.97;49.36
6134;BME280;3098;42.678;23.364;2022-09-12T08:15:58;94783.16;;;23.95;52.34
6134;BME280;3098;42.678;23.364;2022-09-12T08:18:26;94744.47;;;22.48;56.01
6134;BME280;3098;42.678;23.364;2022-09-12T08:20:57;94752.78;;;23.49;53.98
6134;BME280;3098;42.678;23.364;2022-09-12T08:23:25;94764.97;;;23.88;51.75
6134;BME280;3098;42.678;23.364;2022-09-12T08:25:56;94774.44;;;23.49;53.03
6134;BME280;3098;42.678;23.364;2022-09-12T08:28:24;94773.31;;;23.28;54.66
6134;BME280;3098;42.678;23.364;2022-09-12T08:30:51;94761.97;;;23.72;52.79
6134;BME280;3098;42.678;23.364;2022-09-12T08:33:19;94738.25;;;22.89;55.20
6134;BME280;3098;42.678;23.364;2022-09-12T08:35:46;94752.22;;;24.47;51.72
6134;BME280;3098;42.678;23.364;2022-09-12T08:38:14;94682.34;;;23.63;52.69
6134;BME280;3098;42.678;23.364;2022-09-12T08:40:47;94643.41;;;23.32;53.41
6134;BME280;3098;42.678;23.364;2022-09-12T08:43:30;94768.25;;;23.52;53.30
6134;BME280;3098;42.678;23.364;2022-09-12T08:46:04;94756.06;;;22.73;55.90
6134;BME280;3098;42.678;23.364;2022-09-12T08:48:35;94774.78;;;21.74;59.66
6134;BME280;3098;42.678;23.364;2022-09-12T08:51:03;94766.50;;;22.67;58.50
6134;BME280;3098;42.678;23.364;2022-09-12T08:53:31;94766.81;;;22.13;59.04
6134;BME280;3098;42.678;23.364;2022-09-12T08:56:04;94732.09;;;22.18;58.54
6134;BME280;3098;42.678;23.364;2022-09-12T08:58:38;94758.75;;;22.83;56.39
6134;BME280;3098;42.678;23.364;2022-09-12T09:01:09;94753.75;;;23.90;54.31
6134;BME280;3098;42.678;23.364;2022-09-12T09:03:49;94743.75;;;24.90;51.18
6134;BME280;3098;42.678;23.364;2022-09-12T09:06:43;94714.66;;;23.94;51.98
6134;BME280;3098;42.678;23.364;2022-09-12T09:09:19;94753.47;;;24.39;50.13
6134;BME280;3098;42.678;23.364;2022-09-12T09:12:01;94762.47;;;24.22;50.40
6134;BME280;3098;42.678;23.364;2022-09-12T09:17:29;94735.94;;;25.97;44.75
6134;BME280;3098;42.678;23.364;2022-09-12T09:20:03;94738.09;;;25.79;44.82
6134;BME280;3098;42.678;23.364;2022-09-12T09:22:40;94732.50;;;24.91;46.69
6134;BME280;3098;42.678;23.364;2022-09-12T09:25:13;94765.47;;;23.69;50.30
6134;BME280;3098;42.678;23.364;2022-09-12T09:27:47;94714.72;;;22.65;52.62
6134;BME280;3098;42.678;23.364;2022-09-12T09:30:19;94732.03;;;22.96;53.66
6134;BME280;3098;42.678;23.364;2022-09-12T09:32:50;94706.72;;;23.59;52.14
6134;BME280;3098;42.678;23.364;2022-09-12T09:35:24;94745.56;;;24.55;49.56
6134;BME280;3098;42.678;23.364;2022-09-12T09:38:00;94689.19;;;24.81;48.25
6134;BME280;3098;42.678;23.364;2022-09-12T09:40:39;94733.13;;;25.06;47.78
6134;BME280;3098;42.678;23.364;2022-09-12T09:43:17;94690.28;;;24.87;47.07
6134;BME280;3098;42.678;23.364;2022-09-12T09:45:49;94703.97;;;24.28;48.51
6134;BME280;3098;42.678;23.364;2022-09-12T09:48:20;94652.72;;;23.93;49.30
6134;BME280;3098;42.678;23.364;2022-09-12T09:50:49;94701.22;;;23.77;49.28
6134;BME280;3098;42.678;23.364;2022-09-12T09:53:25;94679.03;;;23.16;51.51
6134;BME280;3098;42.678;23.364;2022-09-12T09:55:55;94718.56;;;23.86;50.26
6134;BME280;3098;42.678;23.364;2022-09-12T09:58:33;94688.94;;;24.20;49.78
6134;BME280;3098;42.678;23.364;2022-09-12T10:01:03;94679.81;;;24.89;47.70
6134;BME280;3098;42.678;23.364;2022-09-12T10:03:33;94691.72;;;24.57;48.11
6134;BME280;3098;42.678;23.364;2022-09-12T10:06:06;94726.72;;;25.87;45.73
6134;BME280;3098;42.678;23.364;2022-09-12T10:08:35;94719.66;;;26.47;44.88
6134;BME280;3098;42.678;23.364;2022-09-12T10:11:05;94723.38;;;24.71;47.81
6134;BME280;3098;42.678;23.364;2022-09-12T10:13:39;94719.78;;;25.19;47.11
6134;BME280;3098;42.678;23.364;2022-09-12T10:16:18;94705.31;;;24.95;47.15
6134;BME280;3098;42.678;23.364;2022-09-12T10:18:47;94619.78;;;25.17;45.13
6134;BME280;3098;42.678;23.364;2022-09-12T10:21:32;94706.47;;;25.65;45.81
6134;BME280;3098;42.678;23.364;2022-09-12T10:24:03;94704.59;;;24.91;45.84
6134;BME280;3098;42.678;23.364;2022-09-12T10:26:34;94710.56;;;24.24;48.88
6134;BME280;3098;42.678;23.364;2022-09-12T10:29:12;94709.16;;;24.12;49.88
6134;BME280;3098;42.678;23.364;2022-09-12T10:31:46;94706.91;;;24.48;49.71
6134;BME280;3098;42.678;23.364;2022-09-12T10:34:24;94671.81;;;24.30;49.98
6134;BME280;3098;42.678;23.364;2022-09-12T10:36:59;94666.13;;;24.18;49.57
6134;BME280;3098;42.678;23.364;2022-09-12T10:39:27;94701.09;;;25.28;47.98
6134;BME280;3098;42.678;23.364;2022-09-12T10:41:55;94716.44;;;25.41;46.80
6134;BME280;3098;42.678;23.364;2022-09-12T10:44:25;94700.75;;;25.56;45.26
6134;BME280;3098;42.678;23.364;2022-09-12T10:46:54;94661.06;;;25.65;44.22
6134;BME280;3098;42.678;23.364;2022-09-12T10:49:27;94693.72;;;25.28;43.62
6134;BME280;3098;42.678;23.364;2022-09-12T10:51:56;94714.06;;;25.43;43.08
6134;BME280;3098;42.678;23.364;2022-09-12T10:54:26;94710.44;;;24.41;44.34
6134;BME280;3098;42.678;23.364;2022-09-12T10:57:15;94655.31;;;24.55;44.10
6134;BME280;3098;42.678;23.364;2022-09-12T11:00:03;94714.00;;;25.17;43.55
6134;BME280;3098;42.678;23.364;2022-09-12T11:02:56;94714.56;;;24.05;46.25
6134;BME280;3098;42.678;23.364;2022-09-12T11:05:39;94713.88;;;24.49;46.38
6134;BME280;3098;42.678;23.364;2022-09-12T11:08:20;94708.47;;;23.87;47.85
6134;BME280;3098;42.678;23.364;2022-09-12T11:10:58;94685.75;;;22.55;51.72
6134;BME280;3098;42.678;23.364;2022-09-12T11:13:44;94562.31;;;21.53;53.22
6134;BME280;3098;42.678;23.364;2022-09-12T11:16:24;94718.88;;;21.74;55.08
6134;BME280;3098;42.678;23.364;2022-09-12T11:19:20;94697.34;;;22.34;54.60
6134;BME280;3098;42.678;23.364;2022-09-12T11:22:07;94708.22;;;23.67;51.18
6134;BME280;3098;42.678;23.364;2022-09-12T11:24:48;94618.78;;;23.16;49.33
6134;BME280;3098;42.678;23.364;2022-09-12T11:27:35;94716.25;;;22.63;53.08
6134;BME280;3098;42.678;23.364;2022-09-12T11:30:09;94711.09;;;23.28;50.96
6134;BME280;3098;42.678;23.364;2022-09-12T11:33:01;94698.66;;;23.41;51.24
6134;BME280;3098;42.678;23.364;2022-09-12T11:35:34;94690.03;;;23.68;50.52
6134;BME280;3098;42.678;23.364;2022-09-12T11:38:13;94687.31;;;22.67;53.42
6134;BME280;3098;42.678;23.364;2022-09-12T11:40:48;94674.81;;;21.28;55.17
6134;BME280;3098;42.678;23.364;2022-09-12T11:43:25;94718.19;;;22.02;54.87
6134;BME280;3098;42.678;23.364;2022-09-12T11:45:58;94680.09;;;21.07;56.98
6134;BME280;3098;42.678;23.364;2022-09-12T11:48:36;94706.41;;;21.28;57.64
6134;BME280;3098;42.678;23.364;2022-09-12T11:51:09;94721.63;;;20.95;58.29
6134;BME280;3098;42.678;23.364;2022-09-12T11:53:42;94687.09;;;20.50;59.13
6134;BME280;3098;42.678;23.364;2022-09-12T11:56:14;94711.13;;;21.55;56.79
6134;BME280;3098;42.678;23.364;2022-09-12T11:58:48;94558.81;;;21.25;54.81
6134;BME280;3098;42.678;23.364;2022-09-12T12:01:22;94711.25;;;22.33;53.65
6134;BME280;3098;42.678;23.364;2022-09-12T12:03:50;94679.91;;;21.51;54.40
6134;BME280;3098;42.678;23.364;2022-09-12T12:06:25;94719.97;;;21.49;56.04
6134;BME280;3098;42.678;23.364;2022-09-12T12:08:56;94692.34;;;20.90;57.72
6134;BME280;3098;42.678;23.364;2022-09-12T12:11:28;94704.94;;;20.72;59.37
6134;BME280;3098;42.678;23.364;2022-09-12T12:14:00;94607.53;;;20.63;58.75
6134;BME280;3098;42.678;23.364;2022-09-12T12:16:30;94685.66;;;21.49;57.99
6134;BME280;3098;42.678;23.364;2022-09-12T12:19:00;94700.72;;;21.54;58.52
6134;BME280;3098;42.678;23.364;2022-09-12T12:21:35;94666.47;;;21.97;56.60
6134;BME280;3098;42.678;23.364;2022-09-12T12:24:15;94696.59;;;21.99;53.43
6134;BME280;3098;42.678;23.364;2022-09-12T12:26:54;94688.31;;;21.32;52.35
6134;BME280;3098;42.678;23.364;2022-09-12T12:29:37;94717.59;;;21.30;52.75
6134;BME280;3098;42.678;23.364;2022-09-12T12:32:22;94705.03;;;20.86;54.00
6134;BME280;3098;42.678;23.364;2022-09-12T12:34:50;94662.31;;;20.88;54.41
6134;BME280;3098;42.678;23.364;2022-09-12T12:37:53;94692.50;;;21.11;55.42
6134;BME280;3098;42.678;23.364;2022-09-12T12:40:24;94688.50;;;20.91;57.26
6134;BME280;3098;42.678;23.364;2022-09-12T12:43:02;94695.59;;;21.17;58.19
6134;BME280;3098;42.678;23.364;2022-09-12T12:45:48;94675.53;;;21.14;57.28
6134;BME280;3098;42.678;23.364;2022-09-12T12:48:25;94679.84;;;21.33;57.05
6134;BME280;3098;42.678;23.364;2022-09-12T12:51:27;94583.63;;;20.54;56.92
6134;BME280;3098;42.678;23.364;2022-09-12T12:53:58;94606.69;;;20.55;57.44
6134;BME280;3098;42.678;23.364;2022-09-12T12:56:33;94686.19;;;20.93;58.02
6134;BME280;3098;42.678;23.364;2022-09-12T12:59:03;94698.44;;;20.77;59.38
6134;BME280;3098;42.678;23.364;2022-09-12T13:01:33;94668.63;;;19.97;60.38
6134;BME280;3098;42.678;23.364;2022-09-12T13:04:12;94689.97;;;20.24;61.11
6134;BME280;3098;42.678;23.364;2022-09-12T13:06:41;94703.88;;;20.26;61.74
6134;BME280;3098;42.678;23.364;2022-09-12T13:09:23;94700.53;;;20.43;61.72
6134;BME280;3098;42.678;23.364;2022-09-12T13:11:59;94684.56;;;20.20;61.17
6134;BME280;3098;42.678;23.364;2022-09-12T13:14:46;94697.44;;;20.37;61.48
6134;BME280;3098;42.678;23.364;2022-09-12T13:17:19;94664.34;;;19.93;63.74
6134;BME280;3098;42.678;23.364;2022-09-12T13:19:49;94671.56;;;20.26;62.74
6134;BME280;3098;42.678;23.364;2022-09-12T13:22:21;94696.41;;;20.59;62.59
6134;BME280;3098;42.678;23.364;2022-09-12T13:24:51;94657.19;;;20.11;63.14
6134;BME280;3098;42.678;23.364;2022-09-12T13:27:21;94699.63;;;20.25;62.11
6134;BME280;3098;42.678;23.364;2022-09-12T13:29:49;94698.66;;;20.03;63.40
6134;BME280;3098;42.678;23.364;2022-09-12T13:32:31;94687.47;;;20.01;64.26
6134;BME280;3098;42.678;23.364;2022-09-12T13:35:09;94693.41;;;20.21;60.56
6134;BME280;3098;42.678;23.364;2022-09-12T13:37:44;94619.06;;;20.05;59.68
6134;BME280;3098;42.678;23.364;2022-09-12T13:40:28;94693.72;;;20.59;57.83
6134;BME280;3098;42.678;23.364;2022-09-12T13:43:12;94661.94;;;20.25;58.41